createdAt,value
2022-12-12T05:11:02.955Z,100974.78
2022-12-12T05:13:33.772Z,100983.56
2022-12-12T05:16:12.812Z,100978.13
2022-12-12T05:19:41.729Z,100974.44
2022-12-12T05:22:09.698Z,100980.38
2022-12-12T05:24:37.691Z,100977.72
2022-12-12T05:27:08.660Z,100982.91
2022-12-12T05:29:36.648Z,100982.00
2022-12-12T05:32:05.275Z,100979.38
2022-12-12T05:34:33.181Z,100989.75
2022-12-12T05:37:01.676Z,100988.81
2022-12-12T05:39:29.694Z,100995.94
2022-12-12T05:41:57.497Z,100999.41
2022-12-12T05:44:26.998Z,101000.19
2022-12-12T05:46:55.085Z,101004.53
2022-12-12T05:49:23.509Z,101007.16
2022-12-12T05:51:51.478Z,101009.00
2022-12-12T05:54:19.458Z,101016.91
2022-12-12T05:56:47.362Z,101008.22
2022-12-12T05:59:15.332Z,101007.31
2022-12-12T06:33:46.808Z,101027.56
2022-12-12T06:36:26.146Z,101038.91
2022-12-12T06:38:55.870Z,101042.25
2022-12-12T06:41:25.298Z,101040.38
2022-12-12T06:47:05.027Z,101046.34
2022-12-12T06:49:35.283Z,101045.59
2022-12-12T06:52:19.291Z,101043.78
2022-12-12T07:25:41.713Z,101060.47
2022-12-12T07:28:13.359Z,101070.16
2022-12-12T07:30:49.673Z,101067.47
2022-12-12T07:33:18.973Z,101074.47
2022-12-12T07:35:49.388Z,101071.78
2022-12-12T07:38:19.995Z,101075.28
2022-12-12T07:45:49.083Z,101079.69
2022-12-12T07:48:18.852Z,101074.28
2022-12-12T07:50:49.657Z,101068.03
2022-12-12T07:53:17.835Z,101066.34
2022-12-12T07:55:47.681Z,101066.25
2022-12-12T07:58:17.868Z,101078.59
2022-12-12T08:00:46.264Z,101081.22
2022-12-12T08:03:14.776Z,101084.69
2022-12-12T08:05:45.003Z,101083.75
2022-12-12T08:12:06.143Z,101093.56
2022-12-12T08:18:13.840Z,101091.94
2022-12-12T08:34:30.594Z,101098.75
2022-12-12T08:39:57.360Z,101096.38
2022-12-12T08:42:29.772Z,101092.00
2022-12-12T08:44:59.814Z,101095.56
2022-12-12T08:47:39.794Z,101097.19
2022-12-12T08:50:13.416Z,101102.41
2022-12-12T08:52:50.458Z,101097.13
2022-12-12T08:55:18.790Z,101095.94
2022-12-12T08:57:48.902Z,101103.16
2022-12-12T09:00:18.343Z,101107.59
2022-12-12T09:02:48.681Z,101099.88
2022-12-12T09:05:18.900Z,101109.66
2022-12-12T09:07:47.873Z,101107.16
2022-12-12T09:10:16.120Z,101109.78
2022-12-12T09:12:44.517Z,101111.56
2022-12-12T09:15:14.689Z,101114.16
2022-12-12T09:17:48.630Z,101116.78
2022-12-12T09:20:18.696Z,101119.38
2022-12-12T09:22:50.830Z,101121.03
2022-12-12T09:25:19.651Z,101122.75
2022-12-12T09:27:47.930Z,101124.59
2022-12-12T09:30:16.989Z,101124.72
2022-12-12T09:32:46.900Z,101126.50
2022-12-12T09:35:35.374Z,101128.34
2022-12-12T09:38:09.512Z,101130.13
2022-12-12T09:41:10.317Z,101123.94
2022-12-12T09:43:45.343Z,101124.88
2022-12-12T09:46:28.258Z,101124.88
2022-12-12T09:49:06.362Z,101128.56
2022-12-12T09:51:40.718Z,101117.16
2022-12-12T09:54:15.283Z,101119.84
2022-12-12T09:56:50.684Z,101113.81
2022-12-12T09:59:23.651Z,101124.53
2022-12-12T10:01:59.639Z,101121.94
2022-12-12T10:04:39.776Z,101119.44
2022-12-12T10:07:18.104Z,101124.75
2022-12-12T10:10:00.302Z,101129.31
2022-12-12T10:12:29.567Z,101107.38
2022-12-12T10:15:02.056Z,101110.09
2022-12-12T10:17:55.643Z,101110.94
2022-12-12T10:20:29.101Z,101113.53
2022-12-12T10:23:03.946Z,101113.59
2022-12-12T10:25:42.421Z,101116.38
2022-12-12T10:28:13.551Z,101116.41
2022-12-12T10:31:01.758Z,101109.50
2022-12-12T10:33:46.373Z,101129.88
2022-12-12T10:36:24.282Z,101116.75
2022-12-12T10:39:06.905Z,101112.41
2022-12-12T10:41:40.588Z,101110.72
2022-12-12T10:44:19.903Z,101109.88
2022-12-12T10:46:54.236Z,101107.41
2022-12-12T10:49:25.230Z,101104.88
2022-12-12T10:51:54.387Z,101101.44
2022-12-12T10:54:26.022Z,101092.84
2022-12-12T10:57:19.562Z,101101.66
2022-12-12T10:59:52.534Z,101101.78
2022-12-12T11:03:13.163Z,101100.97
2022-12-12T11:07:12.850Z,101098.41
2022-12-12T11:12:22.735Z,101084.47
2022-12-12T11:14:52.893Z,101084.53
2022-12-12T11:17:26.865Z,101081.00
2022-12-12T11:19:56.383Z,101082.84
2022-12-12T11:22:39.553Z,101075.88
2022-12-12T11:34:59.448Z,101079.13
2022-12-12T11:36:26.703Z,101083.63
2022-12-12T11:38:57.658Z,101084.59
2022-12-12T11:41:25.650Z,101077.56
2022-12-12T11:44:00.414Z,101084.56
2022-12-12T11:46:31.116Z,101080.19
2022-12-12T11:49:02.117Z,101082.84
2022-12-12T11:51:41.513Z,101073.16
2022-12-12T11:54:14.026Z,101070.63
2022-12-12T11:56:44.944Z,101059.34
2022-12-12T11:59:50.336Z,101066.47
2022-12-12T12:02:40.048Z,101065.59
2022-12-12T12:05:25.420Z,101067.47
2022-12-12T12:08:10.515Z,101065.72
2022-12-12T12:10:52.897Z,101071.78
2022-12-12T12:13:40.356Z,101070.81
2022-12-12T12:16:20.360Z,101061.88
2022-12-12T12:19:23.656Z,101063.53
2022-12-12T12:22:04.123Z,101060.06
2022-12-12T12:24:52.795Z,101059.09
2022-12-12T12:27:33.284Z,101053.81
2022-12-12T12:30:23.769Z,101058.22
2022-12-12T12:33:24.282Z,101051.13
2022-12-12T12:36:01.671Z,101052.94
2022-12-12T12:38:50.163Z,101059.97
2022-12-12T12:41:35.781Z,101053.78
2022-12-12T12:44:20.495Z,101051.19
2022-12-12T12:46:56.131Z,101045.13
2022-12-12T12:49:31.015Z,101047.81
2022-12-12T12:52:03.255Z,101048.66
2022-12-12T12:54:36.428Z,101046.88
2022-12-12T12:57:13.194Z,101052.28
2022-12-12T12:59:45.411Z,101053.25
2022-12-12T13:02:27.464Z,101040.81
2022-12-12T13:05:07.042Z,101046.97
2022-12-12T13:07:43.793Z,101047.00
2022-12-12T13:10:22.007Z,101038.16
2022-12-12T13:12:57.044Z,101041.69
2022-12-12T13:15:31.372Z,101032.94
2022-12-12T13:18:04.043Z,101033.81
2022-12-12T13:20:35.993Z,101022.44
2022-12-12T13:23:39.178Z,101028.59
2022-12-12T13:26:14.434Z,101029.66
2022-12-12T13:28:48.309Z,101028.88
2022-12-12T13:31:40.931Z,101031.63
2022-12-12T13:34:11.329Z,101024.63
2022-12-12T13:36:44.614Z,101031.72
2022-12-12T13:39:26.778Z,101037.09
2022-12-12T13:41:57.571Z,101033.53
2022-12-12T13:44:39.314Z,101041.44
2022-12-12T13:47:34.327Z,101043.16
2022-12-12T13:50:19.875Z,101053.69
2022-12-12T13:53:21.138Z,101048.25
2022-12-12T13:55:49.333Z,101042.06
2022-12-12T13:58:36.494Z,101044.78
2022-12-12T14:01:40.798Z,101046.59
2022-12-12T14:04:26.712Z,101051.91
2022-12-12T14:07:11.429Z,101041.38
2022-12-12T14:09:49.843Z,101049.34
2022-12-12T14:12:24.835Z,101041.44
2022-12-12T14:15:22.267Z,101038.84
2022-12-12T14:17:59.375Z,101041.44
2022-12-12T14:20:31.825Z,101034.34
2022-12-12T14:23:24.236Z,101022.88
2022-12-12T14:25:53.374Z,101024.66
2022-12-12T14:28:25.897Z,101022.84
2022-12-12T14:30:57.582Z,101028.19
2022-12-12T14:34:13.478Z,101022.78
2022-12-12T14:37:05.562Z,101040.25
2022-12-12T14:39:53.320Z,101044.56
2022-12-12T14:43:15.303Z,101041.00
2022-12-12T14:45:32.708Z,101037.47
2022-12-12T14:48:21.857Z,101044.41
2022-12-12T14:50:53.973Z,101047.00
2022-12-12T14:53:25.852Z,101047.91
2022-12-12T14:55:57.579Z,101044.28
2022-12-12T14:58:29.848Z,101060.97
2022-12-12T15:01:02.324Z,101051.25
2022-12-12T15:04:09.333Z,101048.50
2022-12-12T15:06:41.760Z,101051.88
2022-12-12T15:09:31.079Z,101058.84
2022-12-12T15:12:14.342Z,101062.22
2022-12-12T15:14:54.020Z,101064.69
2022-12-12T15:17:25.314Z,101071.63
2022-12-12T15:19:57.113Z,101070.66
2022-12-12T15:22:27.850Z,101065.28
2022-12-12T15:24:59.937Z,101065.13
2022-12-12T15:27:31.031Z,101061.38
2022-12-12T15:30:00.990Z,101061.13
2022-12-12T15:32:30.477Z,101059.28
2022-12-12T15:35:04.778Z,101065.38
2022-12-12T15:37:34.420Z,101066.13
2022-12-12T15:40:26.337Z,101073.09
2022-12-12T15:42:57.613Z,101083.34
2022-12-12T15:45:39.344Z,101093.88
2022-12-12T15:48:14.084Z,101099.00
2022-12-12T15:50:53.747Z,101093.66
2022-12-12T15:53:24.976Z,101091.72
2022-12-12T15:56:00.945Z,101093.38
2022-12-12T15:58:32.448Z,101101.13
2022-12-12T16:01:21.463Z,101099.31
2022-12-12T16:03:58.501Z,101100.91
2022-12-12T16:06:40.861Z,101093.75
2022-12-12T16:09:21.811Z,101097.22
2022-12-12T16:11:52.120Z,101090.94
2022-12-12T16:14:35.552Z,101096.91
2022-12-12T16:17:11.657Z,101102.88
2022-12-12T16:19:43.230Z,101096.69
2022-12-12T16:22:20.758Z,101093.19
2022-12-12T16:24:51.429Z,101108.84
2022-12-12T16:27:21.373Z,101107.72
2022-12-12T16:29:57.204Z,101106.69
2022-12-12T16:32:31.162Z,101103.13
2022-12-12T16:34:59.167Z,101103.03
2022-12-12T16:37:27.196Z,101109.94
2022-12-12T16:39:58.275Z,101107.28
2022-12-12T16:42:29.547Z,101100.22
2022-12-12T16:44:57.778Z,101108.91
2022-12-12T16:47:26.056Z,101105.38
2022-12-12T16:49:54.030Z,101104.28
2022-12-12T16:52:22.561Z,101105.06
2022-12-12T16:54:53.776Z,101115.44
2022-12-12T16:57:22.239Z,101117.25
2022-12-12T16:59:51.960Z,101116.38
2022-12-12T17:02:21.974Z,101117.25
2022-12-12T17:04:50.284Z,101123.34
2022-12-12T17:07:20.890Z,101118.00
2022-12-12T17:09:49.047Z,101120.63
2022-12-12T17:12:17.183Z,101115.25
2022-12-12T17:14:47.122Z,101110.78
2022-12-12T17:17:16.629Z,101112.38
2022-12-12T17:19:45.896Z,101113.22
2022-12-12T17:22:13.773Z,101113.03
2022-12-12T17:24:41.727Z,101113.56
2022-12-12T17:27:11.985Z,101112.66
2022-12-12T17:29:39.864Z,101113.50
2022-12-12T17:32:07.757Z,101109.16
2022-12-12T17:34:37.056Z,101104.81
2022-12-12T17:37:04.977Z,101110.03
2022-12-12T17:39:32.977Z,101105.66
2022-12-12T17:42:00.952Z,101108.25
2022-12-12T17:44:28.743Z,101110.88
2022-12-12T17:46:56.496Z,101110.81
2022-12-12T17:49:24.471Z,101111.56
2022-12-12T17:51:54.319Z,101105.16
2022-12-12T17:54:22.452Z,101103.41
2022-12-12T17:56:51.089Z,101108.66
2022-12-12T17:59:19.262Z,101105.94
2022-12-12T18:01:53.984Z,101106.81
2022-12-12T18:04:27.747Z,101100.53
2022-12-12T18:06:58.271Z,101102.22
2022-12-12T18:09:26.578Z,101096.03
2022-12-12T18:11:58.424Z,101098.69
2022-12-12T18:14:31.162Z,101096.84
2022-12-12T18:17:01.286Z,101094.22
2022-12-12T18:19:34.300Z,101099.44
2022-12-12T18:22:03.724Z,101095.88
2022-12-12T18:24:39.467Z,101106.34
2022-12-12T18:27:13.504Z,101104.50
2022-12-12T18:29:41.506Z,101102.69
2022-12-12T18:32:09.443Z,101103.47
2022-12-12T18:34:37.588Z,101104.31
2022-12-12T18:37:06.871Z,101104.31
2022-12-12T18:39:35.840Z,101102.41
2022-12-12T18:42:03.830Z,101107.53
2022-12-12T18:44:31.703Z,101103.00
2022-12-12T18:46:59.719Z,101100.31
2022-12-12T18:49:27.696Z,101102.91
2022-12-12T18:51:55.734Z,101102.84
2022-12-12T18:54:25.097Z,101104.41
2022-12-12T18:56:53.083Z,101100.78
2022-12-12T18:59:20.958Z,101098.09
2022-12-12T19:01:51.118Z,101096.28
2022-12-12T19:04:23.283Z,101093.56
2022-12-12T19:06:51.942Z,101099.63
2022-12-12T19:09:21.107Z,101097.84
2022-12-12T19:11:51.719Z,101103.03
2022-12-12T19:14:21.681Z,101101.28
2022-12-12T19:16:49.601Z,101101.28
2022-12-12T19:19:17.603Z,101102.94
2022-12-12T19:21:46.429Z,101104.50
2022-12-12T19:24:14.390Z,101099.97
2022-12-12T19:26:44.542Z,101098.06
2022-12-12T19:29:15.983Z,101096.25
2022-12-12T19:31:44.204Z,101098.06
2022-12-12T19:34:14.297Z,101096.25
2022-12-12T19:36:43.001Z,101089.19
2022-12-12T19:39:13.293Z,101092.69
2022-12-12T19:41:41.633Z,101094.41
2022-12-12T19:44:12.687Z,101094.34
2022-12-12T19:46:45.606Z,101087.19
2022-12-12T19:49:15.178Z,101091.50
2022-12-12T19:51:44.959Z,101095.88
2022-12-12T19:54:15.834Z,101095.88
2022-12-12T19:56:44.579Z,101099.25
2022-12-12T19:59:15.012Z,101095.72
2022-12-12T20:01:44.879Z,101095.66
2022-12-12T20:04:16.992Z,101094.72
2022-12-12T20:06:45.963Z,101099.97
2022-12-12T20:09:16.347Z,101103.44
2022-12-12T20:11:45.613Z,101110.50
2022-12-12T20:14:15.130Z,101099.00
2022-12-12T20:16:45.162Z,101100.69
2022-12-12T20:19:14.300Z,101108.28
2022-12-12T20:22:00.894Z,101111.56
2022-12-12T20:24:29.480Z,101108.88
2022-12-12T20:26:59.596Z,101108.88
2022-12-12T20:29:28.524Z,101103.56
2022-12-12T20:31:59.838Z,101099.13
2022-12-12T20:34:29.070Z,101103.56
2022-12-12T20:36:57.343Z,101109.66
2022-12-12T20:39:26.001Z,101109.53
2022-12-12T20:41:54.541Z,101109.38
2022-12-12T20:44:23.978Z,101120.75
2022-12-12T20:46:52.211Z,101119.75
2022-12-12T20:49:23.945Z,101121.44
2022-12-12T20:51:56.969Z,101121.44
2022-12-12T20:54:26.660Z,101112.59
2022-12-12T20:56:55.920Z,101122.16
2022-12-12T20:59:24.733Z,101115.03
2022-12-12T21:01:53.088Z,101120.00
2022-12-12T21:04:22.659Z,101125.25
2022-12-12T21:06:51.621Z,101127.03
2022-12-12T21:09:25.515Z,101126.94
2022-12-12T21:11:55.907Z,101133.00
